Time;durP1;ratioP1;P1;durP2;ratioP2;P2;SDS_P1;SDS_P2;PMS_P1;PMS_P2;Temp;Humidity;BMP_temperature;BMP_pressure;BME280_temperature;BME280_humidity;BME280_pressure;Samples;Min_cycle;Max_cycle;Signal;HPM_P1;HPM_P2
2021/12/05 00:22:30;;;;;;;11.50;7.28;;;6.30;99.00;;;;;;4992517;28;20049;-77
2021/12/05 00:24:59;;;;;;;14.52;7.88;;;6.20;99.00;;;;;;4992557;28;20353;-74
2021/12/05 00:27:32;;;;;;;12.23;7.70;;;6.40;99.10;;;;;;4992538;28;20100;-75
2021/12/05 00:30:34;;;;;;;13.00;7.68;;;6.30;99.00;;;;;;4992515;28;20030;-75
2021/12/05 00:33:18;;;;;;;14.10;8.15;;;6.40;99.20;;;;;;4992260;28;20460;-75
2021/12/05 00:36:23;;;;;;;15.20;8.55;;;6.40;99.20;;;;;;4991744;28;20098;-74
2021/12/05 00:39:15;;;;;;;11.95;7.85;;;6.40;99.10;;;;;;4992451;28;20046;-73
2021/12/05 01:00:00;;;;;;;15.93;8.32;;;6.60;99.40;;;;;;4992191;28;20064;-75
2021/12/05 01:02:38;;;;;;;13.80;8.07;;;6.60;99.40;;;;;;4991041;28;20034;-75
2021/12/05 01:12:40;;;;;;;16.33;6.72;;;6.80;99.50;;;;;;4991914;28;20053;-75
2021/12/05 01:15:14;;;;;;;13.77;7.70;;;6.80;99.60;;;;;;4990495;28;20033;-75
2021/12/05 01:17:58;;;;;;;12.77;7.60;;;6.90;99.60;;;;;;4992245;28;20076;-75
2021/12/05 01:20:26;;;;;;;15.23;7.78;;;6.90;99.60;;;;;;4991750;28;20472;-75
2021/12/05 01:22:59;;;;;;;13.13;8.25;;;6.90;99.60;;;;;;4991477;28;20039;-75
2021/12/05 01:25:54;;;;;;;21.05;9.02;;;6.90;99.60;;;;;;4991553;28;20037;-75
2021/12/05 01:28:23;;;;;;;17.33;9.23;;;7.00;99.60;;;;;;4991338;28;20038;-76
2021/12/05 01:33:31;;;;;;;18.65;8.65;;;7.10;99.70;;;;;;4991783;28;20116;-72
2021/12/05 01:36:08;;;;;;;18.98;9.40;;;7.10;99.50;;;;;;4992070;28;20030;-75
2021/12/05 01:41:27;;;;;;;16.75;9.40;;;7.10;99.50;;;;;;4991266;28;20038;-75
2021/12/05 01:57:28;;;;;;;19.95;10.27;;;7.20;99.50;;;;;;4991589;28;20018;-75
2021/12/05 02:00:23;;;;;;;20.20;9.77;;;7.30;99.40;;;;;;4991107;28;20129;-74
2021/12/05 02:42:33;;;;;;;16.42;8.93;;;7.30;99.20;;;;;;4994555;28;20427;-74
2021/12/05 02:44:59;;;;;;;14.88;8.40;;;7.30;99.10;;;;;;4993309;28;20081;-74
2021/12/05 02:47:28;;;;;;;18.83;9.95;;;7.30;99.30;;;;;;4994745;28;20022;-75
2021/12/05 02:49:59;;;;;;;17.90;8.93;;;7.20;99.10;;;;;;4994547;28;20041;-73
2021/12/05 02:52:33;;;;;;;21.85;10.55;;;7.30;99.10;;;;;;4994277;28;20041;-73
2021/12/05 02:55:13;;;;;;;17.25;9.60;;;7.20;99.00;;;;;;4994350;28;20035;-75
2021/12/05 03:00:20;;;;;;;31.65;10.90;;;7.10;99.10;;;;;;4993910;28;20042;-73
2021/12/05 03:02:48;;;;;;;18.70;10.10;;;7.10;99.20;;;;;;4994355;28;20030;-74
2021/12/05 03:05:19;;;;;;;20.90;10.55;;;7.20;99.00;;;;;;4993957;28;20041;-73
2021/12/05 03:07:47;;;;;;;23.05;10.68;;;7.20;98.90;;;;;;4993273;28;20038;-73
2021/12/05 03:10:17;;;;;;;23.00;10.27;;;7.30;99.00;;;;;;4993906;28;20034;-73
2021/12/05 03:12:45;;;;;;;24.38;11.23;;;7.30;98.90;;;;;;4993775;28;20042;-73
2021/12/05 03:15:14;;;;;;;31.98;11.65;;;7.30;98.90;;;;;;4992989;28;20022;-73
2021/12/05 03:17:41;;;;;;;22.38;11.18;;;7.30;98.80;;;;;;4994358;28;20326;-74
2021/12/05 03:20:08;;;;;;;23.65;11.57;;;7.30;98.90;;;;;;4994212;28;20030;-74
2021/12/05 03:22:34;;;;;;;24.03;12.00;;;7.30;98.90;;;;;;4993667;28;20035;-74
2021/12/05 03:25:00;;;;;;;23.90;11.90;;;7.30;98.80;;;;;;4993559;28;20473;-74
2021/12/05 03:27:28;;;;;;;21.40;11.80;;;7.30;98.80;;;;;;4992849;28;20049;-75
2021/12/05 03:29:54;;;;;;;28.45;11.82;;;7.40;98.80;;;;;;4994005;28;20030;-73
2021/12/05 03:32:20;;;;;;;23.88;12.52;;;7.30;98.80;;;;;;4992856;28;20034;-74
2021/12/05 03:34:45;;;;;;;27.88;12.90;;;7.40;98.90;;;;;;4993661;28;20496;-74
2021/12/05 03:37:11;;;;;;;28.75;12.27;;;7.40;98.70;;;;;;4993508;28;20058;-74
2021/12/05 03:39:37;;;;;;;27.02;13.43;;;7.40;98.70;;;;;;4993390;28;20034;-74
2021/12/05 03:42:04;;;;;;;29.88;14.05;;;7.40;98.70;;;;;;4993429;28;20034;-74
2021/12/05 03:44:33;;;;;;;25.55;12.75;;;7.30;98.70;;;;;;4992834;28;20034;-74
2021/12/05 03:46:59;;;;;;;26.83;14.07;;;7.20;98.60;;;;;;4993664;28;20027;-75
2021/12/05 03:49:25;;;;;;;34.53;14.43;;;7.30;98.70;;;;;;4993549;28;20027;-74
2021/12/05 03:52:00;;;;;;;31.38;15.25;;;7.30;98.60;;;;;;4993385;28;20092;-74
2021/12/05 03:54:26;;;;;;;27.10;14.30;;;7.30;98.70;;;;;;4993109;28;20034;-74
2021/12/05 03:56:52;;;;;;;30.15;13.98;;;7.30;98.70;;;;;;4993639;28;20035;-73
2021/12/05 03:59:18;;;;;;;31.15;15.68;;;7.20;98.50;;;;;;4992877;28;20084;-74
2021/12/05 04:01:44;;;;;;;27.50;15.02;;;7.30;98.60;;;;;;4991890;28;20054;-74
2021/12/05 04:04:10;;;;;;;31.45;14.57;;;7.40;98.60;;;;;;4991954;28;20041;-73
2021/12/05 04:06:37;;;;;;;32.25;14.98;;;7.30;98.50;;;;;;4992755;28;20037;-73
2021/12/05 04:09:06;;;;;;;27.27;14.40;;;7.20;98.50;;;;;;4991921;28;20025;-74
2021/12/05 04:11:37;;;;;;;29.45;14.13;;;7.30;98.60;;;;;;4993215;28;20098;-74
2021/12/05 04:14:09;;;;;;;33.90;15.20;;;7.30;98.50;;;;;;4992715;28;20246;-74
2021/12/05 04:16:36;;;;;;;30.25;13.95;;;7.30;98.40;;;;;;4992688;28;20050;-74
2021/12/05 04:19:03;;;;;;;36.97;13.88;;;7.40;98.40;;;;;;4992845;28;20031;-74
2021/12/05 04:21:30;;;;;;;26.90;13.15;;;7.30;98.30;;;;;;4991539;28;20018;-74
2021/12/05 04:23:58;;;;;;;30.10;12.90;;;7.30;98.30;;;;;;4992998;28;20022;-74
2021/12/05 04:26:24;;;;;;;32.33;12.82;;;7.40;98.40;;;;;;4991182;28;20027;-74
2021/12/05 04:28:50;;;;;;;30.92;13.20;;;7.30;98.20;;;;;;4991462;28;20102;-74
2021/12/05 04:31:20;;;;;;;27.55;12.82;;;7.30;98.30;;;;;;4992422;28;20023;-74
2021/12/05 04:33:46;;;;;;;29.95;12.50;;;7.40;98.30;;;;;;4992321;28;20037;-74
2021/12/05 04:36:12;;;;;;;28.52;12.00;;;7.30;98.20;;;;;;4992814;28;20408;-75
2021/12/05 04:38:38;;;;;;;31.90;12.13;;;7.30;98.20;;;;;;4992776;28;20100;-75
2021/12/05 04:41:05;;;;;;;23.50;11.10;;;7.30;98.20;;;;;;4991093;28;20094;-75
2021/12/05 04:43:37;;;;;;;26.55;10.93;;;7.30;98.30;;;;;;4992092;28;20105;-75
2021/12/05 04:46:06;;;;;;;29.35;11.90;;;7.40;98.30;;;;;;4991618;28;20046;-75
2021/12/05 04:48:32;;;;;;;22.13;11.40;;;7.30;98.20;;;;;;4992103;28;20357;-74
2021/12/05 04:50:58;;;;;;;25.60;11.80;;;7.40;98.40;;;;;;4991124;28;20040;-74
2021/12/05 04:53:26;;;;;;;27.50;9.82;;;7.40;98.30;;;;;;4992270;28;20041;-74
2021/12/05 04:55:52;;;;;;;21.80;10.32;;;7.40;98.30;;;;;;4992020;28;20057;-74
2021/12/05 04:58:18;;;;;;;21.63;9.80;;;7.40;98.10;;;;;;4990798;28;20429;-75
2021/12/05 05:00:45;;;;;;;25.98;9.77;;;7.40;98.20;;;;;;4991871;28;20321;-75
2021/12/05 05:03:11;;;;;;;21.13;9.05;;;7.40;98.20;;;;;;4992036;28;20018;-75
2021/12/05 05:05:41;;;;;;;19.63;8.48;;;7.50;98.00;;;;;;4992307;28;20145;-75
2021/12/05 05:08:07;;;;;;;21.88;9.68;;;7.30;98.00;;;;;;4991912;28;20327;-74
2021/12/05 05:10:33;;;;;;;30.25;8.52;;;7.30;98.00;;;;;;4991637;28;20027;-75
2021/12/05 05:12:59;;;;;;;19.98;7.55;;;7.30;97.90;;;;;;4991927;28;20060;-75
2021/12/05 05:15:29;;;;;;;21.08;7.68;;;7.30;97.80;;;;;;4991763;28;20461;-75
2021/12/05 05:17:56;;;;;;;24.77;7.68;;;7.20;97.90;;;;;;4991986;28;20023;-75
2021/12/05 05:23:23;;;;;;;23.52;6.70;;;7.20;97.70;;;;;;4991488;28;20384;-74
2021/12/05 05:26:22;;;;;;;16.60;6.38;;;7.30;97.70;;;;;;4990570;28;20038;-75
2021/12/05 05:28:57;;;;;;;17.58;6.45;;;7.30;97.70;;;;;;4991204;28;20077;-74
2021/12/05 05:47:10;;;;;;;17.30;6.60;;;7.30;97.20;;;;;;4991311;28;20117;-73
2021/12/05 05:49:58;;;;;;;15.48;5.85;;;7.20;97.00;;;;;;4991195;28;20067;-74
2021/12/05 05:52:26;;;;;;;20.98;5.93;;;7.20;97.10;;;;;;4990197;28;20041;-74
2021/12/05 05:54:54;;;;;;;20.13;6.55;;;7.20;97.00;;;;;;4991135;28;20049;-74
2021/12/05 05:59:55;;;;;;;15.73;5.13;;;7.20;97.00;;;;;;4991295;28;19975;-74
2021/12/05 06:05:06;;;;;;;19.30;5.25;;;7.20;97.10;;;;;;4991193;28;20099;-73
2021/12/05 06:07:33;;;;;;;16.10;5.53;;;7.20;97.00;;;;;;4991050;28;20038;-74
2021/12/05 06:09:59;;;;;;;15.68;5.18;;;7.20;96.90;;;;;;4991115;28;20364;-74
2021/12/05 06:12:24;;;;;;;12.55;5.20;;;7.20;97.00;;;;;;4991344;28;20026;-73
2021/12/05 06:14:50;;;;;;;22.85;6.72;;;7.30;97.10;;;;;;4991548;28;20365;-74
2021/12/05 06:17:18;;;;;;;15.88;5.65;;;7.40;97.20;;;;;;4990986;28;20022;-74
2021/12/05 06:19:43;;;;;;;14.15;5.47;;;7.40;97.30;;;;;;4989966;28;20110;-74
2021/12/05 06:22:09;;;;;;;18.08;6.03;;;7.30;97.30;;;;;;4990897;28;20180;-73
2021/12/05 06:24:35;;;;;;;17.73;5.25;;;7.40;97.30;;;;;;4990885;28;20401;-73
2021/12/05 06:27:01;;;;;;;15.77;5.97;;;7.40;97.30;;;;;;4990634;28;20212;-74
2021/12/05 06:29:33;;;;;;;13.65;5.95;;;7.20;97.30;;;;;;4991708;28;20106;-74
2021/12/05 06:32:20;;;;;;;17.67;5.75;;;7.20;97.40;;;;;;4991436;28;20039;-73
2021/12/05 06:47:39;;;;;;;18.17;5.88;;;7.30;97.50;;;;;;4990806;28;20081;-75
2021/12/05 06:50:06;;;;;;;20.20;6.78;;;7.20;97.40;;;;;;4994413;28;20031;-74
2021/12/05 06:52:31;;;;;;;17.38;5.45;;;7.30;97.50;;;;;;4994484;28;20376;-74
2021/12/05 06:54:57;;;;;;;15.30;5.60;;;7.30;97.60;;;;;;4994273;28;20475;-74
2021/12/05 06:57:23;;;;;;;18.98;5.40;;;7.20;97.60;;;;;;4994261;28;20030;-74
2021/12/05 06:59:49;;;;;;;13.00;5.43;;;7.20;97.70;;;;;;4994448;28;20046;-74
2021/12/05 07:02:17;;;;;;;13.50;5.95;;;7.10;97.90;;;;;;4994025;28;20035;-74
2021/12/05 07:04:56;;;;;;;14.70;5.40;;;7.00;97.90;;;;;;4994089;28;20089;-74
2021/12/05 07:07:25;;;;;;;16.98;5.78;;;7.10;98.20;;;;;;4994076;28;20038;-75
2021/12/05 07:09:51;;;;;;;19.75;6.80;;;7.00;98.20;;;;;;4994158;28;20026;-73
2021/12/05 07:15:00;;;;;;;14.40;5.82;;;7.00;98.40;;;;;;4994618;28;20037;-73
2021/12/05 07:20:10;;;;;;;19.85;6.25;;;7.00;98.40;;;;;;4993931;28;20050;-74
2021/12/05 07:25:45;;;;;;;15.05;5.22;;;7.00;98.80;;;;;;4993945;28;20460;-75
2021/12/05 07:42:14;;;;;;;10.82;5.75;;;6.90;98.80;;;;;;4974294;28;20154;-74
2021/12/05 07:44:40;;;;;;;13.02;5.50;;;7.00;98.90;;;;;;4993837;28;20022;-74
2021/12/05 07:47:06;;;;;;;14.52;6.00;;;7.00;98.80;;;;;;4992227;28;20037;-75
2021/12/05 07:49:32;;;;;;;18.38;6.50;;;7.00;98.80;;;;;;4993466;28;20039;-75
2021/12/05 07:51:57;;;;;;;21.13;6.28;;;7.00;98.80;;;;;;4993309;28;20030;-75
2021/12/05 07:54:44;;;;;;;14.55;5.30;;;7.00;98.80;;;;;;4993274;28;20448;-76
2021/12/05 08:16:07;;;;;;;15.40;4.85;;;7.20;98.90;;;;;;4993480;28;20383;-75
2021/12/05 08:18:33;;;;;;;11.70;5.22;;;7.20;98.90;;;;;;4993119;28;20030;-76
2021/12/05 08:21:00;;;;;;;26.73;6.10;;;7.20;99.10;;;;;;4993000;28;20037;-74
2021/12/05 08:23:27;;;;;;;15.40;5.82;;;7.20;98.80;;;;;;4993221;28;20476;-76
2021/12/05 08:26:03;;;;;;;15.75;5.40;;;7.00;98.90;;;;;;4993093;28;20078;-79
2021/12/05 08:28:54;;;;;;;14.45;4.60;;;7.10;99.00;;;;;;4993296;28;20030;-78
2021/12/05 09:21:11;;;;;;;11.38;4.10;;;7.40;98.10;;;;;;4992426;28;20041;-74
2021/12/05 09:26:08;;;;;;;21.02;4.90;;;7.50;98.10;;;;;;4992546;28;20042;-77
2021/12/05 09:40:31;;;;;;;12.00;5.15;;;7.70;97.90;;;;;;4991870;28;20117;-81
2021/12/05 10:06:58;;;;;;;13.20;3.25;;;8.30;96.30;;;;;;4991456;28;20117;-75
2021/12/05 10:09:57;;;;;;;13.48;3.40;;;8.30;96.30;;;;;;4990353;28;20338;-73
2021/12/05 10:34:47;;;;;;;7.00;1.98;;;8.40;94.80;;;;;;4994423;28;20476;-75
2021/12/05 10:37:24;;;;;;;11.35;2.30;;;8.50;95.00;;;;;;4994266;28;20030;-74
2021/12/05 10:40:10;;;;;;;10.85;2.28;;;8.70;94.90;;;;;;4994671;28;20022;-74
2021/12/05 10:42:50;;;;;;;5.35;1.30;;;8.70;94.80;;;;;;4994501;28;20034;-75
2021/12/05 10:45:19;;;;;;;9.93;2.30;;;8.60;94.40;;;;;;4994314;28;20042;-74
2021/12/05 10:47:52;;;;;;;13.68;2.28;;;8.60;94.40;;;;;;4994859;28;20482;-74
2021/12/05 10:50:37;;;;;;;8.75;1.67;;;8.60;94.50;;;;;;4994620;28;20041;-73
2021/12/05 10:53:21;;;;;;;10.18;3.58;;;8.80;94.60;;;;;;4994761;28;20121;-73
2021/12/05 10:56:02;;;;;;;11.95;3.20;;;8.90;94.50;;;;;;4994506;28;20058;-71
2021/12/05 10:58:34;;;;;;;7.70;1.83;;;9.00;94.20;;;;;;4994416;28;20118;-78
2021/12/05 11:01:11;;;;;;;10.48;2.47;;;9.00;94.10;;;;;;4993783;28;20519;-75
2021/12/05 11:03:37;;;;;;;15.50;2.92;;;9.10;94.10;;;;;;4993942;28;20483;-74
2021/12/05 11:06:21;;;;;;;10.82;1.95;;;9.10;94.00;;;;;;4994138;28;20030;-75
2021/12/05 11:08:53;;;;;;;7.82;1.83;;;9.10;93.90;;;;;;4993504;28;20286;-78
2021/12/05 11:11:19;;;;;;;6.55;2.00;;;9.20;94.50;;;;;;4993894;28;20172;-74
2021/12/05 11:13:46;;;;;;;13.48;2.03;;;9.20;94.00;;;;;;4993876;28;20409;-75
2021/12/05 11:16:34;;;;;;;7.00;1.88;;;9.40;94.10;;;;;;4993848;28;20372;-73
2021/12/05 11:19:01;;;;;;;11.73;1.75;;;9.60;93.60;;;;;;4993975;28;20030;-74
2021/12/05 11:21:35;;;;;;;6.22;1.48;;;9.70;93.30;;;;;;4993955;28;20062;-74
2021/12/05 11:24:15;;;;;;;6.63;1.40;;;9.80;93.00;;;;;;4994033;28;20101;-73
2021/12/05 11:26:43;;;;;;;11.45;2.22;;;9.90;92.50;;;;;;4994019;28;20034;-74
2021/12/05 11:29:10;;;;;;;8.65;2.03;;;9.90;92.60;;;;;;4993754;28;20126;-74
2021/12/05 11:31:37;;;;;;;7.90;2.25;;;10.00;92.00;;;;;;4994065;28;20038;-75
2021/12/05 11:34:04;;;;;;;11.33;2.77;;;9.70;91.40;;;;;;4993458;28;20050;-75
2021/12/05 11:36:36;;;;;;;9.88;1.88;;;9.60;91.40;;;;;;4992961;28;20248;-75
2021/12/05 11:39:20;;;;;;;10.13;2.15;;;9.30;91.40;;;;;;4993349;28;20031;-75
2021/12/05 11:41:46;;;;;;;7.63;1.58;;;9.30;91.30;;;;;;4994101;28;20042;-73
2021/12/05 11:44:17;;;;;;;10.02;1.52;;;9.30;91.60;;;;;;4992359;28;20052;-75
2021/12/05 11:46:44;;;;;;;9.85;1.88;;;9.30;91.30;;;;;;4992928;28;20030;-73
2021/12/05 11:49:25;;;;;;;10.75;1.98;;;9.30;91.60;;;;;;4992987;28;20516;-74
2021/12/05 11:51:52;;;;;;;8.00;1.58;;;9.40;91.20;;;;;;4992914;28;20035;-73
2021/12/05 11:54:18;;;;;;;12.43;1.70;;;9.30;91.20;;;;;;4992668;28;20038;-74
2021/12/05 11:56:46;;;;;;;11.60;2.50;;;9.30;91.30;;;;;;4993206;28;20026;-73
2021/12/05 11:59:31;;;;;;;15.38;2.92;;;9.30;91.20;;;;;;4992805;28;20065;-74
2021/12/05 12:02:22;;;;;;;12.95;2.20;;;9.30;91.40;;;;;;4992942;28;20038;-75
2021/12/05 12:05:08;;;;;;;11.00;2.85;;;9.40;91.40;;;;;;4991486;28;20022;-73
2021/12/05 12:07:45;;;;;;;14.40;3.60;;;9.40;91.10;;;;;;4992555;28;20030;-73
2021/12/05 12:10:22;;;;;;;12.73;3.88;;;9.30;91.00;;;;;;4991416;28;20096;-74
2021/12/05 12:12:58;;;;;;;10.33;2.10;;;9.30;91.10;;;;;;4991234;28;20018;-75
2021/12/05 12:15:26;;;;;;;15.32;2.08;;;9.20;91.10;;;;;;4991226;28;20376;-73
2021/12/05 12:17:55;;;;;;;5.93;2.30;;;9.20;91.30;;;;;;4993142;28;20034;-75
2021/12/05 12:20:23;;;;;;;10.45;1.80;;;9.20;91.00;;;;;;4991075;28;20480;-77
2021/12/05 12:22:51;;;;;;;7.43;1.50;;;9.20;91.00;;;;;;4991100;28;20039;-77
2021/12/05 12:25:22;;;;;;;6.03;1.67;;;9.30;91.10;;;;;;4992265;28;20034;-75
2021/12/05 12:27:48;;;;;;;10.23;1.73;;;9.40;91.30;;;;;;4992066;28;20034;-74
2021/12/05 12:30:24;;;;;;;8.48;1.85;;;9.30;91.00;;;;;;4992149;28;20034;-73
2021/12/05 12:32:55;;;;;;;7.20;1.80;;;9.10;90.80;;;;;;4992567;28;20448;-74
2021/12/05 12:35:26;;;;;;;6.07;1.85;;;9.20;91.10;;;;;;4992448;28;20119;-72
2021/12/05 12:38:06;;;;;;;8.57;1.77;;;9.30;90.90;;;;;;4991968;28;20106;-74
2021/12/05 12:40:35;;;;;;;9.00;1.77;;;9.40;91.10;;;;;;4990893;28;20053;-73
2021/12/05 12:43:01;;;;;;;8.68;1.70;;;9.30;90.80;;;;;;4991712;28;20034;-77
2021/12/05 12:45:28;;;;;;;13.20;1.95;;;9.40;91.10;;;;;;4991862;28;20040;-75
2021/12/05 12:47:56;;;;;;;5.68;1.63;;;9.30;90.80;;;;;;4992210;28;20026;-74
2021/12/05 12:50:50;;;;;;;7.90;2.47;;;9.40;90.80;;;;;;4991752;28;20045;-74
2021/12/05 12:53:29;;;;;;;10.30;2.53;;;9.40;90.90;;;;;;4990642;28;20027;-73
2021/12/05 12:56:06;;;;;;;3.72;1.35;;;9.20;90.60;;;;;;4990991;28;20091;-71
2021/12/05 12:58:50;;;;;;;8.25;2.20;;;9.20;90.90;;;;;;4991505;28;20103;-72
2021/12/05 13:01:42;;;;;;;3.83;1.10;;;9.30;90.80;;;;;;4991701;28;20042;-73
2021/12/05 13:04:35;;;;;;;12.30;2.25;;;9.30;90.60;;;;;;4991444;28;20544;-72
2021/12/05 13:09:59;;;;;;;8.20;1.70;;;9.30;90.70;;;;;;4991787;28;20363;-73
2021/12/05 13:10:17;;;;;;;12.27;1.58;;;9.30;90.70;;;;;;4991548;28;20117;-73
2021/12/05 13:12:45;;;;;;;7.25;1.83;;;9.30;90.70;;;;;;4990566;28;20026;-73
2021/12/05 13:15:20;;;;;;;18.50;1.67;;;9.20;90.70;;;;;;4990318;28;20033;-72
2021/12/05 13:17:55;;;;;;;7.07;1.50;;;9.30;90.90;;;;;;4990775;28;20038;-73
2021/12/05 13:20:42;;;;;;;9.38;2.22;;;9.40;90.90;;;;;;4970859;28;20185;-73
2021/12/05 13:23:48;;;;;;;8.25;2.22;;;9.40;90.80;;;;;;4971598;28;20035;-76
2021/12/05 13:26:23;;;;;;;4.00;1.40;;;9.20;90.40;;;;;;4970890;28;20102;-72
2021/12/05 13:29:08;;;;;;;10.88;1.70;;;9.40;90.70;;;;;;4971876;28;20067;-73
2021/12/05 13:31:38;;;;;;;10.40;1.52;;;9.50;90.80;;;;;;4986725;28;20043;-72
2021/12/05 13:34:25;;;;;;;9.77;2.22;;;9.50;90.50;;;;;;4986862;28;20453;-73
2021/12/05 13:37:05;;;;;;;8.93;2.05;;;9.40;90.80;;;;;;4971844;28;20061;-72
2021/12/05 13:39:53;;;;;;;7.00;2.08;;;9.40;90.60;;;;;;4971610;28;20038;-71
2021/12/05 13:42:22;;;;;;;6.35;1.67;;;9.50;90.80;;;;;;4971612;28;20083;-72
2021/12/05 13:45:04;;;;;;;16.15;2.30;;;9.50;90.70;;;;;;4972103;28;20023;-73
2021/12/05 13:47:39;;;;;;;6.60;1.50;;;9.40;90.50;;;;;;4971671;28;20054;-71
2021/12/05 13:50:17;;;;;;;4.47;1.45;;;9.40;90.30;;;;;;4971474;28;20085;-71
2021/12/05 13:52:45;;;;;;;10.40;1.90;;;9.50;90.50;;;;;;4971415;28;20035;-72
2021/12/05 13:55:50;;;;;;;10.77;1.48;;;9.40;90.70;;;;;;4986636;28;20057;-73
2021/12/05 13:58:17;;;;;;;9.95;2.30;;;9.40;90.50;;;;;;4986006;28;20034;-72
2021/12/05 14:00:50;;;;;;;11.03;2.00;;;9.40;90.50;;;;;;4971261;28;20038;-73
2021/12/05 14:03:39;;;;;;;8.43;1.80;;;9.30;90.60;;;;;;4971349;28;20417;-76
2021/12/05 14:06:40;;;;;;;9.98;1.77;;;9.30;90.60;;;;;;4971517;28;20026;-80
2021/12/05 14:09:17;;;;;;;15.85;1.83;;;9.40;90.90;;;;;;4971601;28;20034;-79
2021/12/05 14:12:07;;;;;;;7.70;1.70;;;9.40;90.60;;;;;;4971968;28;20038;-79
2021/12/05 14:14:46;;;;;;;12.10;1.88;;;9.40;90.70;;;;;;4986737;28;20070;-79
2021/12/05 14:17:11;;;;;;;8.05;1.83;;;9.50;90.60;;;;;;4971625;28;20322;-79
2021/12/05 14:19:39;;;;;;;9.35;2.15;;;9.50;90.50;;;;;;4971317;28;20031;-77
2021/12/05 14:22:08;;;;;;;7.43;2.30;;;9.40;90.50;;;;;;4971447;28;20037;-74
2021/12/05 14:24:38;;;;;;;9.75;1.70;;;9.40;90.70;;;;;;4971006;28;20055;-75
2021/12/05 14:27:07;;;;;;;7.70;1.85;;;9.20;90.10;;;;;;4971074;28;20031;-78
2021/12/05 14:29:37;;;;;;;6.28;1.35;;;9.20;90.00;;;;;;4971474;28;20027;-75
2021/12/05 14:32:12;;;;;;;12.48;2.33;;;9.20;90.20;;;;;;4971015;28;20088;-74
2021/12/05 14:34:40;;;;;;;7.78;1.73;;;9.30;90.50;;;;;;4971153;28;20035;-74
2021/12/05 14:37:10;;;;;;;11.88;1.85;;;9.30;90.50;;;;;;4971055;28;20093;-73
2021/12/05 14:39:43;;;;;;;11.57;2.00;;;9.50;90.60;;;;;;4970791;28;20110;-74
2021/12/05 14:42:16;;;;;;;5.82;1.98;;;9.50;90.40;;;;;;4985651;28;20395;-72
2021/12/05 14:44:44;;;;;;;11.43;1.73;;;9.40;90.50;;;;;;4971176;28;20019;-74
2021/12/05 14:47:12;;;;;;;9.25;1.80;;;9.40;90.20;;;;;;4970835;28;20061;-74
2021/12/05 14:49:46;;;;;;;6.85;2.08;;;9.30;90.20;;;;;;4985883;28;20129;-76
2021/12/05 14:52:19;;;;;;;15.55;2.13;;;9.30;90.50;;;;;;4970972;28;20031;-73
2021/12/05 14:54:46;;;;;;;14.57;2.05;;;9.30;90.50;;;;;;4970757;28;20134;-73
2021/12/05 14:57:21;;;;;;;9.93;2.08;;;9.20;90.90;;;;;;4970641;28;20023;-73
2021/12/05 14:59:49;;;;;;;11.82;2.05;;;9.00;91.40;;;;;;4970891;28;20053;-73
2021/12/05 15:02:17;;;;;;;7.93;1.48;;;9.00;91.70;;;;;;4970432;28;20035;-72
2021/12/05 15:04:46;;;;;;;8.93;1.40;;;8.90;91.90;;;;;;4970646;28;20096;-73
2021/12/05 15:07:12;;;;;;;8.90;1.90;;;8.80;92.20;;;;;;4970612;28;20030;-73
2021/12/05 15:09:44;;;;;;;13.63;4.03;;;8.70;92.60;;;;;;4970741;28;20030;-73
2021/12/05 15:12:20;;;;;;;7.35;2.65;;;8.70;92.70;;;;;;4973850;28;20102;-71
2021/12/05 15:14:48;;;;;;;15.23;2.60;;;8.60;92.70;;;;;;4973435;28;20457;-75
2021/12/05 15:17:21;;;;;;;7.68;2.70;;;8.70;92.60;;;;;;4989002;28;20247;-74
2021/12/05 15:19:53;;;;;;;14.23;4.22;;;8.70;92.70;;;;;;4973967;28;20027;-72
2021/12/05 15:22:19;;;;;;;12.02;3.95;;;8.70;92.70;;;;;;4973752;28;20031;-72
2021/12/05 15:24:54;;;;;;;17.00;3.40;;;8.60;92.80;;;;;;4973856;28;20027;-72
2021/12/05 15:27:23;;;;;;;8.40;1.65;;;8.60;93.10;;;;;;4973665;28;20097;-72
2021/12/05 15:29:52;;;;;;;12.85;3.05;;;8.50;93.10;;;;;;4974144;28;20018;-73
2021/12/05 15:32:21;;;;;;;14.75;3.00;;;8.60;93.00;;;;;;4988763;28;20473;-73
2021/12/05 15:34:52;;;;;;;17.40;3.25;;;8.50;93.30;;;;;;4973536;28;20045;-72
2021/12/05 15:37:18;;;;;;;17.65;2.22;;;8.60;93.30;;;;;;4973663;28;20034;-72
2021/12/05 15:39:46;;;;;;;7.85;2.53;;;8.60;93.30;;;;;;4973627;28;20035;-72
2021/12/05 15:42:18;;;;;;;10.65;2.17;;;8.40;93.30;;;;;;4988489;28;20244;-75
2021/12/05 15:44:45;;;;;;;6.82;1.90;;;8.40;93.70;;;;;;4974250;28;20337;-73
2021/12/05 15:47:28;;;;;;;12.75;1.70;;;8.30;94.10;;;;;;4973141;28;20378;-72
2021/12/05 15:50:12;;;;;;;10.48;2.20;;;8.30;93.70;;;;;;4973247;28;20039;-72
2021/12/05 15:52:43;;;;;;;10.13;2.45;;;8.20;93.70;;;;;;4973395;28;20085;-72
2021/12/05 15:55:40;;;;;;;17.90;5.50;;;8.20;93.60;;;;;;4973296;28;20042;-72
2021/12/05 15:58:11;;;;;;;14.02;4.43;;;8.20;93.70;;;;;;4973289;28;20446;-72
2021/12/05 16:00:44;;;;;;;12.90;3.42;;;8.20;94.00;;;;;;4972876;28;20031;-73
2021/12/05 16:03:14;;;;;;;12.57;3.45;;;8.30;94.00;;;;;;4973004;28;20034;-73
2021/12/05 16:05:43;;;;;;;12.63;2.45;;;8.10;93.90;;;;;;4973815;28;20019;-73
2021/12/05 16:08:14;;;;;;;7.25;2.08;;;8.00;94.00;;;;;;4988516;28;20027;-73
2021/12/05 16:10:43;;;;;;;9.85;2.15;;;7.90;94.10;;;;;;4973240;28;20075;-73
2021/12/05 16:13:16;;;;;;;7.43;2.50;;;7.90;94.10;;;;;;4972031;28;20039;-75
2021/12/05 16:15:44;;;;;;;14.77;3.35;;;7.80;94.10;;;;;;4972824;28;20034;-74
2021/12/05 16:18:10;;;;;;;;;;;7.80;94.30;;;;;;4988443;28;20085;-74
2021/12/05 16:20:47;;;;;;;7.40;2.70;;;7.80;94.40;;;;;;4972769;28;19906;-74
2021/12/05 16:23:28;;;;;;;9.73;2.38;;;7.70;94.50;;;;;;4972818;28;20039;-74
2021/12/05 16:26:02;;;;;;;7.35;3.25;;;7.70;94.60;;;;;;4972800;28;20118;-73
2021/12/05 16:28:37;;;;;;;17.13;3.10;;;7.60;94.50;;;;;;4972769;28;20027;-72
2021/12/05 16:31:30;;;;;;;15.43;3.45;;;7.50;94.50;;;;;;4972599;28;20031;-73
2021/12/05 16:34:02;;;;;;;10.80;3.83;;;7.50;94.60;;;;;;4972559;28;20445;-71
2021/12/05 16:36:52;;;;;;;14.43;3.90;;;7.30;94.70;;;;;;4972510;28;20117;-71
2021/12/05 16:39:21;;;;;;;9.75;3.15;;;7.10;95.00;;;;;;4984302;28;20043;-68
2021/12/05 16:41:59;;;;;;;11.20;3.42;;;7.00;95.10;;;;;;4972787;28;20027;-68
2021/12/05 16:44:26;;;;;;;;;;;7.10;95.40;;;;;;4973154;28;20473;-70
2021/12/05 16:46:55;;;;;;;18.20;4.27;;;7.20;95.40;;;;;;4972345;28;19910;-70
2021/12/05 16:49:27;;;;;;;17.50;4.63;;;7.10;95.40;;;;;;4972097;28;20407;-72
2021/12/05 16:52:13;;;;;;;14.82;4.82;;;7.20;95.30;;;;;;4972281;28;20031;-71
2021/12/05 16:54:46;;;;;;;14.85;4.30;;;7.10;95.50;;;;;;4972204;28;20057;-70
2021/12/05 16:57:16;;;;;;;19.38;4.15;;;7.10;95.40;;;;;;4972327;28;20038;-69
2021/12/05 16:59:47;;;;;;;22.42;4.32;;;7.10;95.30;;;;;;4972122;28;20030;-70
2021/12/05 17:02:24;;;;;;;10.93;3.95;;;7.00;95.70;;;;;;4972061;28;20070;-71
2021/12/05 17:05:00;;;;;;;11.27;3.72;;;7.00;95.50;;;;;;4987479;28;20204;-70
2021/12/05 17:07:49;;;;;;;24.73;7.25;;;7.10;95.60;;;;;;4972128;28;20026;-69
2021/12/05 17:10:21;;;;;;;22.02;5.07;;;7.20;95.60;;;;;;4971909;28;20058;-70
2021/12/05 17:12:53;;;;;;;20.55;6.57;;;7.10;95.50;;;;;;4972110;28;20023;-70
2021/12/05 17:15:25;;;;;;;21.98;6.32;;;7.00;95.90;;;;;;4971798;28;20134;-68
2021/12/05 17:18:00;;;;;;;21.52;7.53;;;7.10;95.90;;;;;;4971128;28;20461;-68
2021/12/05 17:20:35;;;;;;;15.27;5.97;;;7.10;95.70;;;;;;4972134;28;20062;-70
2021/12/05 17:23:10;;;;;;;22.50;6.10;;;7.20;95.60;;;;;;4970691;28;20536;-72
2021/12/05 17:25:44;;;;;;;21.58;7.05;;;7.20;95.60;;;;;;4971670;28;20054;-71
2021/12/05 17:28:17;;;;;;;18.85;5.60;;;7.10;95.60;;;;;;4971524;28;20058;-71
2021/12/05 17:30:55;;;;;;;18.23;7.03;;;7.10;95.80;;;;;;4971569;28;20126;-71
2021/12/05 17:33:30;;;;;;;19.15;5.93;;;7.10;96.10;;;;;;4970830;28;20055;-70
2021/12/05 17:35:57;;;;;;;21.15;6.40;;;7.10;96.10;;;;;;4972184;28;20110;-72
2021/12/05 17:38:35;;;;;;;18.98;5.88;;;7.00;95.80;;;;;;4971812;28;20043;-70
2021/12/05 17:41:02;;;;;;;18.25;6.97;;;6.90;95.80;;;;;;4971490;28;20027;-69
2021/12/05 17:43:28;;;;;;;25.70;8.38;;;7.10;96.00;;;;;;4971248;28;20053;-68
2021/12/05 17:45:53;;;;;;;20.42;8.32;;;7.20;96.00;;;;;;4971583;28;20042;-68
2021/12/05 17:48:19;;;;;;;38.65;14.80;;;7.10;95.90;;;;;;4971260;28;20114;-71
2021/12/05 17:50:45;;;;;;;38.45;15.55;;;7.20;95.90;;;;;;4971540;28;20318;-72
2021/12/05 17:53:10;;;;;;;19.00;8.70;;;7.30;96.10;;;;;;4986536;28;20101;-72
2021/12/05 17:55:44;;;;;;;14.98;6.03;;;7.30;96.20;;;;;;4971227;28;20031;-73
2021/12/05 17:58:22;;;;;;;19.00;5.68;;;7.20;95.90;;;;;;4970953;28;20039;-71
2021/12/05 18:02:35;;;;;;;21.52;7.13;;;7.20;96.10;;;;;;4970911;28;20039;-71
2021/12/05 18:03:40;;;;;;;20.10;7.72;;;7.30;96.10;;;;;;4971071;28;20409;-70
2021/12/05 18:06:06;;;;;;;21.10;7.80;;;7.40;96.20;;;;;;4971029;28;20030;-71
2021/12/05 18:08:32;;;;;;;15.13;7.60;;;7.40;96.20;;;;;;4971677;28;20121;-71
2021/12/05 18:11:01;;;;;;;25.75;9.35;;;7.40;96.10;;;;;;4971160;28;20089;-70
2021/12/05 18:13:32;;;;;;;18.45;7.78;;;7.50;96.20;;;;;;4971262;28;20061;-71